createdAt,value
2023-04-15T00:01:19.879Z,25.92
2023-04-15T00:03:49.131Z,25.45
2023-04-15T00:06:17.912Z,24.90
2023-04-15T00:08:46.787Z,26.13
2023-04-15T00:11:18.505Z,22.48
2023-04-15T00:13:47.381Z,24.42
2023-04-15T00:16:16.471Z,29.65
2023-04-15T00:18:44.831Z,26.75
2023-04-15T00:21:15.307Z,23.58
2023-04-15T00:23:44.268Z,25.42
2023-04-15T00:26:13.489Z,25.13
2023-04-15T00:28:44.876Z,26.23
2023-04-15T00:31:14.396Z,26.25
2023-04-15T00:33:42.794Z,25.13
2023-04-15T00:36:12.395Z,24.05
2023-04-15T00:38:41.020Z,28.15
2023-04-15T00:41:10.749Z,24.67
2023-04-15T00:43:39.543Z,25.77
2023-04-15T00:46:11.245Z,25.98
2023-04-15T00:48:40.137Z,26.55
2023-04-15T00:51:09.834Z,26.35
2023-04-15T00:53:38.231Z,26.67
2023-04-15T00:56:08.150Z,28.17
2023-04-15T00:58:37.247Z,26.25
2023-04-15T01:01:06.507Z,25.55
2023-04-15T01:03:37.128Z,26.08
2023-04-15T01:06:06.776Z,26.08
2023-04-15T01:08:35.645Z,30.13
2023-04-15T01:11:05.132Z,27.13
2023-04-15T01:13:35.382Z,26.93
2023-04-15T01:16:04.438Z,26.08
2023-04-15T01:18:33.358Z,29.70
2023-04-15T01:21:03.923Z,26.65
2023-04-15T01:23:33.305Z,30.10
2023-04-15T01:26:04.500Z,24.20
2023-04-15T01:28:33.053Z,28.33
2023-04-15T01:31:09.376Z,26.42
2023-04-15T01:33:42.414Z,29.00
2023-04-15T01:36:11.856Z,28.25
2023-04-15T01:38:40.745Z,27.10
2023-04-15T01:41:11.313Z,28.50
2023-04-15T01:43:39.920Z,26.73
2023-04-15T01:46:11.359Z,30.55
2023-04-15T01:48:39.710Z,28.50
2023-04-15T01:51:08.507Z,28.58
2023-04-15T01:53:37.470Z,28.30
2023-04-15T01:56:07.363Z,27.70
2023-04-15T01:58:37.457Z,28.17
2023-04-15T02:01:07.147Z,28.90
2023-04-15T02:03:35.677Z,27.10
2023-04-15T02:06:06.332Z,24.92
2023-04-15T02:08:34.964Z,24.60
2023-04-15T02:11:04.240Z,26.10
2023-04-15T02:13:33.723Z,25.92
2023-04-15T02:16:05.268Z,23.40
2023-04-15T02:18:33.811Z,24.23
2023-04-15T02:21:02.830Z,24.30
2023-04-15T02:23:31.184Z,23.85
2023-04-15T02:26:00.099Z,23.15
2023-04-15T02:28:28.739Z,22.58
2023-04-15T02:30:59.413Z,23.52
2023-04-15T02:33:29.461Z,23.80
2023-04-15T02:35:58.197Z,23.73
2023-04-15T02:38:28.290Z,22.67
2023-04-15T02:40:57.749Z,21.17
2023-04-15T02:43:26.398Z,24.63
2023-04-15T02:45:55.159Z,23.58
2023-04-15T02:48:23.591Z,24.45
2023-04-15T02:50:53.923Z,24.90
2023-04-15T02:53:22.275Z,23.88
2023-04-15T02:55:51.976Z,24.83
2023-04-15T02:58:20.640Z,24.95
2023-04-15T03:05:22.218Z,24.92
2023-04-15T03:07:54.854Z,23.77
2023-04-15T03:10:23.593Z,24.08
2023-04-15T03:12:52.500Z,24.73
2023-04-15T03:15:23.917Z,23.48
2023-04-15T03:17:55.092Z,24.35
2023-04-15T03:20:23.821Z,24.80
2023-04-15T03:22:54.516Z,25.73
2023-04-15T03:25:25.207Z,21.23
2023-04-15T03:27:54.940Z,23.77
2023-04-15T03:30:23.716Z,21.92
2023-04-15T03:32:53.045Z,23.15
2023-04-15T03:35:21.913Z,23.00
2023-04-15T03:37:51.102Z,24.90
2023-04-15T03:40:23.222Z,23.02
2023-04-15T03:42:52.202Z,22.48
2023-04-15T03:45:20.661Z,24.35
2023-04-15T03:47:49.904Z,24.93
2023-04-15T03:50:18.840Z,26.23
2023-04-15T03:52:48.709Z,24.02
2023-04-15T03:55:20.280Z,26.92
2023-04-15T03:57:49.029Z,22.48
2023-04-15T04:00:17.538Z,25.80
2023-04-15T04:02:47.198Z,23.20
2023-04-15T04:05:15.876Z,23.15
2023-04-15T04:07:44.913Z,25.33
2023-04-15T04:10:13.780Z,26.05
2023-04-15T04:12:44.384Z,25.27
2023-04-15T04:15:13.370Z,29.70
2023-04-15T04:17:42.548Z,25.85
2023-04-15T04:20:11.444Z,28.08
2023-04-15T04:22:40.983Z,32.75
2023-04-15T04:25:11.317Z,27.15
2023-04-15T04:27:41.052Z,25.67
2023-04-15T04:30:12.752Z,27.40
2023-04-15T04:32:41.742Z,27.40
2023-04-15T04:35:11.607Z,28.52
2023-04-15T04:37:40.710Z,25.80
2023-04-15T04:40:10.864Z,27.43
2023-04-15T04:42:40.767Z,24.65
2023-04-15T04:45:11.386Z,26.58
2023-04-15T04:47:40.319Z,25.65
2023-04-15T04:50:10.801Z,26.30
2023-04-15T04:52:40.714Z,28.20
2023-04-15T04:55:09.787Z,23.65
2023-04-15T04:57:39.629Z,25.30
2023-04-15T05:00:12.751Z,26.15
2023-04-15T05:02:42.566Z,29.45
2023-04-15T05:05:15.311Z,24.85
2023-04-15T05:07:44.893Z,31.42
2023-04-15T05:10:14.904Z,27.88
2023-04-15T05:12:43.610Z,25.73
2023-04-15T05:15:14.377Z,26.67
2023-04-15T05:17:43.458Z,24.60
2023-04-15T05:20:12.926Z,26.10
2023-04-15T05:25:10.593Z,28.42
2023-04-15T05:27:40.302Z,32.10
2023-04-15T05:30:11.617Z,28.42
2023-04-15T05:32:44.096Z,26.55
2023-04-15T05:35:12.908Z,26.13
2023-04-15T05:37:41.599Z,27.83
2023-04-15T05:40:11.200Z,23.38
2023-04-15T05:42:40.288Z,23.77
2023-04-15T05:45:09.772Z,26.65
2023-04-15T05:47:38.889Z,24.98
2023-04-15T05:50:10.161Z,24.30
2023-04-15T05:52:38.877Z,26.83
2023-04-15T05:55:08.204Z,27.60
2023-04-15T05:57:37.904Z,26.20
2023-04-15T06:00:08.189Z,25.23
2023-04-15T06:02:39.826Z,25.10
2023-04-15T06:05:11.947Z,27.45
2023-04-15T06:07:40.659Z,26.13
2023-04-15T06:10:10.196Z,26.83
2023-04-15T06:12:39.151Z,26.25
2023-04-15T06:15:10.093Z,27.05
2023-04-15T06:17:39.275Z,26.83
2023-04-15T06:20:10.595Z,27.58
2023-04-15T06:22:40.145Z,26.05
2023-04-15T06:25:09.539Z,26.10
2023-04-15T06:27:39.080Z,26.40
2023-04-15T06:30:08.618Z,25.65
2023-04-15T06:35:06.541Z,25.42
2023-04-15T06:37:36.959Z,26.63
2023-04-15T06:40:06.072Z,25.63
2023-04-15T06:42:35.244Z,26.80
2023-04-15T06:45:03.969Z,23.92
2023-04-15T06:47:32.669Z,26.13
2023-04-15T06:50:01.302Z,26.20
2023-04-15T06:52:30.304Z,27.35
2023-04-15T06:55:01.059Z,24.55
2023-04-15T06:57:30.197Z,22.92
2023-04-15T06:59:58.604Z,23.77
2023-04-15T07:02:27.724Z,25.85
2023-04-15T07:04:57.118Z,28.25
2023-04-15T07:07:26.625Z,28.42
2023-04-15T07:09:55.329Z,27.00
2023-04-15T07:12:25.572Z,25.83
2023-04-15T07:14:54.379Z,24.58
2023-04-15T07:17:23.219Z,27.85
2023-04-15T07:19:51.671Z,23.33
2023-04-15T07:22:20.771Z,24.00
2023-04-15T07:24:49.445Z,25.20
2023-04-15T07:27:18.587Z,23.40
2023-04-15T07:29:49.342Z,20.67
2023-04-15T07:32:17.987Z,22.52
2023-04-15T07:34:46.546Z,23.77
2023-04-15T07:37:16.882Z,21.80
2023-04-15T07:39:45.340Z,27.20
2023-04-15T07:42:14.245Z,22.27
2023-04-15T07:44:42.888Z,22.63
2023-04-15T07:47:13.646Z,22.75
2023-04-15T07:49:43.464Z,22.20
2023-04-15T07:52:12.821Z,21.23
2023-04-15T07:54:41.187Z,19.42
2023-04-15T07:57:09.931Z,22.55
2023-04-15T07:59:38.570Z,19.30
2023-04-15T08:02:08.674Z,19.15
2023-04-15T08:04:39.630Z,20.42
2023-04-15T08:07:09.202Z,21.50
2023-04-15T08:09:38.055Z,18.73
2023-04-15T08:12:09.881Z,19.45
2023-04-15T08:14:38.965Z,20.83
2023-04-15T08:17:08.009Z,20.85
2023-04-15T08:19:37.723Z,20.60
2023-04-15T08:22:10.490Z,21.60
2023-04-15T08:24:46.755Z,21.73
2023-04-15T08:27:15.538Z,21.65
2023-04-15T08:29:45.517Z,19.95
2023-04-15T08:32:15.038Z,24.90
2023-04-15T08:34:43.568Z,19.42
2023-04-15T08:37:14.366Z,20.47
2023-04-15T08:39:42.769Z,18.77
2023-04-15T08:42:18.019Z,19.38
2023-04-15T08:44:48.011Z,20.98
2023-04-15T08:47:21.845Z,34.50
2023-04-15T08:49:54.149Z,18.77
2023-04-15T08:52:26.610Z,18.45
2023-04-15T08:54:59.882Z,18.67
2023-04-15T08:57:29.993Z,16.85
2023-04-15T08:59:58.824Z,19.15
2023-04-15T09:02:28.618Z,18.55
2023-04-15T09:04:58.937Z,20.13
2023-04-15T09:07:29.254Z,19.92
2023-04-15T09:09:57.900Z,21.98
2023-04-15T09:12:26.878Z,22.38
2023-04-15T09:14:55.713Z,21.40
2023-04-15T09:17:26.779Z,19.90
2023-04-15T09:20:10.516Z,19.42
2023-04-15T09:22:41.682Z,20.90
2023-04-15T09:25:33.435Z,20.38
2023-04-15T09:28:03.968Z,21.52
2023-04-15T09:30:32.314Z,17.38
2023-04-15T09:33:11.067Z,22.95
2023-04-15T09:35:39.796Z,19.30
2023-04-15T09:38:11.376Z,18.23
2023-04-15T09:40:41.486Z,18.50
2023-04-15T09:43:13.756Z,17.67
2023-04-15T09:45:49.356Z,23.02
2023-04-15T09:48:20.990Z,26.05
2023-04-15T09:50:50.670Z,27.17
2023-04-15T09:53:22.440Z,22.73
2023-04-15T09:55:55.684Z,30.02
2023-04-15T09:58:26.611Z,25.10
2023-04-15T10:00:57.582Z,22.25
2023-04-15T10:03:29.218Z,24.20
2023-04-15T10:05:59.133Z,21.40
2023-04-15T10:08:31.658Z,20.15
2023-04-15T10:11:00.196Z,18.92
2023-04-15T10:13:33.062Z,23.80
2023-04-15T10:16:06.736Z,17.25
2023-04-15T10:18:37.575Z,18.13
2023-04-15T10:21:07.104Z,18.80
2023-04-15T10:23:38.184Z,18.90
2023-04-15T10:26:07.213Z,19.08
2023-04-15T10:28:36.412Z,18.33
2023-04-15T10:31:07.627Z,20.77
2023-04-15T10:33:36.949Z,20.67
2023-04-15T10:36:06.620Z,21.42
2023-04-15T10:38:43.551Z,19.40
2023-04-15T10:41:21.071Z,17.63
2023-04-15T10:43:53.133Z,18.25
2023-04-15T10:46:24.205Z,17.55
2023-04-15T10:48:54.248Z,19.25
2023-04-15T10:54:01.712Z,17.15
2023-04-15T10:56:31.559Z,15.63
2023-04-15T10:59:02.295Z,16.25
2023-04-15T11:01:53.142Z,18.30
2023-04-15T11:04:55.460Z,15.65
2023-04-15T11:07:41.348Z,16.63
2023-04-15T11:10:55.346Z,16.38
2023-04-15T11:13:30.706Z,18.70
2023-04-15T11:16:01.996Z,18.52
2023-04-15T11:18:33.149Z,16.67
2023-04-15T11:21:04.543Z,18.52
2023-04-15T11:23:38.860Z,19.95
2023-04-15T11:26:10.003Z,18.20
2023-04-15T11:28:42.290Z,16.52
2023-04-15T11:31:13.437Z,17.08
2023-04-15T11:33:49.004Z,21.02
2023-04-15T11:36:18.128Z,18.02
2023-04-15T11:38:49.110Z,18.20
2023-04-15T11:41:22.464Z,16.48
2023-04-15T11:43:53.085Z,18.50
2023-04-15T11:46:22.941Z,17.27
2023-04-15T11:48:51.576Z,17.75
2023-04-15T11:51:22.107Z,17.90
2023-04-15T11:53:52.154Z,17.85
2023-04-15T11:56:22.488Z,15.48
2023-04-15T11:58:57.137Z,17.15
2023-04-15T12:01:32.984Z,16.42
2023-04-15T12:04:02.449Z,16.85
2023-04-15T12:06:35.155Z,15.85
2023-04-15T12:09:10.032Z,16.90
2023-04-15T12:11:44.796Z,19.25
2023-04-15T12:14:22.684Z,17.20
2023-04-15T12:16:54.389Z,16.45
2023-04-15T12:19:27.732Z,16.13
2023-04-15T12:22:01.562Z,16.08
2023-04-15T12:24:33.069Z,15.82
2023-04-15T12:27:05.195Z,20.83
2023-04-15T12:29:36.715Z,15.13
2023-04-15T12:32:10.537Z,16.23
2023-04-15T12:34:40.637Z,20.00
2023-04-15T12:37:11.031Z,17.88
2023-04-15T12:39:42.019Z,16.40
2023-04-15T12:42:11.828Z,16.13
2023-04-15T12:44:41.872Z,17.88
2023-04-15T12:47:11.923Z,17.00
2023-04-15T12:52:10.241Z,21.65
2023-04-15T12:54:38.860Z,18.75
2023-04-15T12:57:07.969Z,19.15
2023-04-15T12:59:36.908Z,18.07
2023-04-15T13:02:07.680Z,20.73
2023-04-15T13:04:36.234Z,18.58
2023-04-15T13:07:04.995Z,17.57
2023-04-15T13:09:33.446Z,16.92
2023-04-15T13:12:04.587Z,14.37
2023-04-15T13:14:33.031Z,19.42
2023-04-15T13:17:02.925Z,16.52
2023-04-15T13:19:33.250Z,16.15
2023-04-15T13:22:03.983Z,18.13
2023-04-15T13:24:32.889Z,19.13
2023-04-15T13:27:01.668Z,16.23
2023-04-15T13:29:30.468Z,17.77
2023-04-15T13:31:59.186Z,16.42
2023-04-15T13:34:27.615Z,17.38
2023-04-15T13:36:58.392Z,18.53
2023-04-15T13:39:26.741Z,19.55
2023-04-15T13:41:56.124Z,18.13
2023-04-15T13:44:24.603Z,15.32
2023-04-15T13:46:55.043Z,16.73
2023-04-15T13:49:23.477Z,18.42
2023-04-15T13:51:52.707Z,17.43
2023-04-15T13:54:22.748Z,17.90
2023-04-15T13:56:51.845Z,18.35
2023-04-15T13:59:20.474Z,16.90
2023-04-15T14:01:49.676Z,19.00
2023-04-15T14:04:18.116Z,17.42
2023-04-15T14:06:47.509Z,19.63
2023-04-15T14:09:16.257Z,18.05
2023-04-15T14:11:46.661Z,18.83
2023-04-15T14:14:16.315Z,18.10
2023-04-15T14:16:45.347Z,18.88
2023-04-15T14:19:14.026Z,15.63
2023-04-15T14:21:42.893Z,20.30
2023-04-15T14:24:12.592Z,18.30
2023-04-15T14:26:41.459Z,20.95
2023-04-15T14:29:11.886Z,23.00
2023-04-15T14:31:41.196Z,22.30
2023-04-15T14:34:11.596Z,20.00
2023-04-15T14:36:41.918Z,16.05
2023-04-15T14:39:10.604Z,20.80
2023-04-15T14:41:39.289Z,20.35
2023-04-15T14:44:09.741Z,19.58
2023-04-15T14:46:41.229Z,17.33
2023-04-15T14:49:10.738Z,19.15
2023-04-15T14:51:41.649Z,18.48
2023-04-15T14:54:10.715Z,21.60
2023-04-15T14:56:39.672Z,22.48
2023-04-15T14:59:08.293Z,19.38
2023-04-15T15:01:37.125Z,19.57
2023-04-15T15:04:07.028Z,23.70
2023-04-15T15:06:37.352Z,21.40
2023-04-15T15:09:06.212Z,21.85
2023-04-15T15:11:35.224Z,16.17
2023-04-15T15:14:03.500Z,21.15
2023-04-15T15:16:32.475Z,20.13
2023-04-15T15:19:01.166Z,25.60
2023-04-15T15:21:31.987Z,20.95
2023-04-15T15:24:01.629Z,17.92
2023-04-15T15:26:30.579Z,20.08
2023-04-15T15:28:58.952Z,19.02
2023-04-15T15:31:27.994Z,18.48
2023-04-15T15:33:56.796Z,17.50
2023-04-15T15:36:27.356Z,17.13
2023-04-15T15:38:57.308Z,21.38
2023-04-15T15:41:27.009Z,20.40
2023-04-15T15:43:56.086Z,18.50
2023-04-15T15:46:25.175Z,18.88
2023-04-15T15:48:53.851Z,18.10
2023-04-15T15:51:22.740Z,18.70
2023-04-15T15:53:51.657Z,19.23
2023-04-15T15:56:21.745Z,21.48
2023-04-15T15:58:50.433Z,23.85
2023-04-15T16:01:18.901Z,20.95
2023-04-15T16:03:47.911Z,18.48
2023-04-15T16:06:16.813Z,19.52
2023-04-15T16:08:45.660Z,20.10
2023-04-15T16:11:14.068Z,17.52
2023-04-15T16:13:44.072Z,14.60
2023-04-15T16:18:41.995Z,15.43
2023-04-15T16:21:10.642Z,17.40
2023-04-15T16:26:08.642Z,17.70
2023-04-15T16:28:37.394Z,16.88
2023-04-15T16:31:07.648Z,15.77
2023-04-15T16:33:36.484Z,14.05
2023-04-15T16:36:05.525Z,17.33
2023-04-15T16:38:34.615Z,14.35
2023-04-15T16:41:03.622Z,15.43
2023-04-15T16:43:32.390Z,15.15
2023-04-15T16:46:00.749Z,15.25
2023-04-15T16:48:31.259Z,18.02
2023-04-15T16:50:59.893Z,17.35
2023-04-15T16:53:28.664Z,15.63
2023-04-15T16:55:58.058Z,18.25
2023-04-15T16:58:27.872Z,16.08
2023-04-15T17:00:56.740Z,14.05
2023-04-15T17:03:26.999Z,17.85
2023-04-15T17:05:57.347Z,15.77
2023-04-15T17:08:26.083Z,16.15
2023-04-15T17:10:55.316Z,15.68
2023-04-15T17:13:24.378Z,14.10
2023-04-15T17:15:55.133Z,17.20
2023-04-15T17:18:24.929Z,13.48
2023-04-15T17:20:53.307Z,13.07
2023-04-15T17:23:23.881Z,14.45
2023-04-15T17:25:52.754Z,13.32
2023-04-15T17:28:21.859Z,14.35
2023-04-15T17:30:50.897Z,12.77
2023-04-15T17:33:56.175Z,12.80
2023-04-15T17:36:08.915Z,12.13
2023-04-15T17:38:41.824Z,12.52
2023-04-15T17:41:10.284Z,12.18
2023-04-15T17:43:39.290Z,13.38
2023-04-15T17:46:08.395Z,12.15
2023-04-15T17:48:37.960Z,12.93
2023-04-15T17:51:06.442Z,13.55
2023-04-15T17:53:35.195Z,13.63
2023-04-15T17:56:05.296Z,13.63
2023-04-15T17:58:34.343Z,10.32
2023-04-15T18:01:03.124Z,10.90
2023-04-15T18:03:31.861Z,10.13
2023-04-15T18:06:01.397Z,11.88
2023-04-15T18:10:59.250Z,9.93
2023-04-15T18:13:29.674Z,11.68
2023-04-15T18:15:58.161Z,10.93
2023-04-15T18:18:27.176Z,8.77
2023-04-15T18:20:55.600Z,9.68
2023-04-15T18:23:24.316Z,9.35
2023-04-15T18:25:52.618Z,9.88
2023-04-15T18:28:23.691Z,11.82
2023-04-15T18:33:25.197Z,10.73
2023-04-15T18:35:53.678Z,10.55
2023-04-15T18:38:22.501Z,9.40
2023-04-15T18:40:50.916Z,13.15
2023-04-15T18:43:20.406Z,9.10
2023-04-15T18:45:49.146Z,10.90
2023-04-15T18:48:19.430Z,11.90
2023-04-15T18:50:48.188Z,14.15
2023-04-15T18:53:17.290Z,11.63
2023-04-15T18:55:45.718Z,14.98
2023-04-15T18:58:14.457Z,12.43
2023-04-15T19:00:43.983Z,14.13
2023-04-15T19:03:12.853Z,14.43
2023-04-15T19:05:43.013Z,15.02
2023-04-15T19:08:12.529Z,13.38
2023-04-15T19:10:41.274Z,10.90
2023-04-15T19:13:10.026Z,9.25
2023-04-15T19:15:38.380Z,10.00
2023-04-15T19:18:10.655Z,9.50
2023-04-15T19:20:40.323Z,9.18
2023-04-15T19:23:12.740Z,9.82
2023-04-15T19:25:41.554Z,10.10
2023-04-15T19:28:10.586Z,10.07
2023-04-15T19:30:39.139Z,10.30
2023-04-15T19:33:07.971Z,11.05
2023-04-15T19:35:36.466Z,11.25
2023-04-15T19:38:06.918Z,10.25
2023-04-15T19:40:36.752Z,11.30
2023-04-15T19:43:05.861Z,12.40
2023-04-15T19:45:35.685Z,11.20
2023-04-15T19:48:06.248Z,12.02
2023-04-15T19:50:34.906Z,11.20
2023-04-15T19:53:04.121Z,12.52
2023-04-15T19:55:32.706Z,13.03
2023-04-15T19:58:03.208Z,12.43
2023-04-15T20:00:32.579Z,12.45
2023-04-15T20:05:30.122Z,12.10
2023-04-15T20:07:59.892Z,15.25
2023-04-15T20:10:28.391Z,13.25
2023-04-15T20:12:57.161Z,12.52
2023-04-15T20:15:28.153Z,13.02
2023-04-15T20:17:57.153Z,13.93
2023-04-15T20:20:25.636Z,15.63
2023-04-15T20:22:54.608Z,14.10
2023-04-15T20:25:22.986Z,14.75
2023-04-15T20:27:51.718Z,14.07
2023-04-15T20:30:20.282Z,17.55
2023-04-15T20:32:50.758Z,17.87
2023-04-15T20:35:19.938Z,19.73
2023-04-15T20:37:50.816Z,22.85
2023-04-15T20:40:19.337Z,23.73
2023-04-15T20:42:48.048Z,28.17
2023-04-15T20:45:16.650Z,22.63
2023-04-15T20:47:45.485Z,22.65
2023-04-15T20:50:16.011Z,23.42
2023-04-15T20:52:45.510Z,18.85
2023-04-15T20:55:14.135Z,15.80
2023-04-15T20:57:43.162Z,14.35
2023-04-15T21:00:12.387Z,15.20
2023-04-15T21:02:41.432Z,16.35
2023-04-15T21:05:10.290Z,15.10
2023-04-15T21:07:41.396Z,17.25
2023-04-15T21:10:10.756Z,13.70
2023-04-15T21:12:41.180Z,11.45
2023-04-15T21:15:10.922Z,14.10
2023-04-15T21:17:40.113Z,13.00
2023-04-15T21:20:09.978Z,15.25
2023-04-15T21:22:40.614Z,14.43
2023-04-15T21:25:10.161Z,15.25
2023-04-15T21:27:39.554Z,14.10
2023-04-15T21:30:09.117Z,16.00
2023-04-15T21:35:07.840Z,14.68
2023-04-15T21:37:37.632Z,11.52
2023-04-15T21:40:09.487Z,12.00
2023-04-15T21:42:38.322Z,14.65
2023-04-15T21:45:08.081Z,12.57
2023-04-15T21:48:04.585Z,13.90
2023-04-15T21:50:25.625Z,14.43
2023-04-15T21:52:54.448Z,15.20
2023-04-15T21:55:24.559Z,16.38
2023-04-15T21:57:53.276Z,16.10
2023-04-15T22:00:23.263Z,17.17
2023-04-15T22:02:53.110Z,18.27
2023-04-15T22:05:22.097Z,18.23
2023-04-15T22:07:50.830Z,19.92
2023-04-15T22:10:19.687Z,16.35
2023-04-15T22:12:50.105Z,17.65
2023-04-15T22:15:18.514Z,19.15
2023-04-15T22:17:47.582Z,17.65
2023-04-15T22:20:16.094Z,15.43
2023-04-15T22:22:45.422Z,15.20
2023-04-15T22:25:13.989Z,15.60
2023-04-15T22:27:42.961Z,16.90
2023-04-15T22:30:14.359Z,13.38
2023-04-15T22:32:43.928Z,12.52
2023-04-15T22:35:12.501Z,11.45
2023-04-15T22:37:41.279Z,13.27
2023-04-15T22:40:11.105Z,12.73
2023-04-15T22:42:40.032Z,14.38
2023-04-15T22:45:09.626Z,12.98
2023-04-15T22:50:09.423Z,16.30
2023-04-15T22:52:38.363Z,14.00
2023-04-15T22:55:07.930Z,13.95
2023-04-15T22:57:36.756Z,14.70
2023-04-15T23:00:05.908Z,15.23
2023-04-15T23:02:34.995Z,16.95
2023-04-15T23:05:12.549Z,16.08
2023-04-15T23:07:42.297Z,15.75
2023-04-15T23:10:11.331Z,15.30
2023-04-15T23:12:40.331Z,15.48
2023-04-15T23:15:10.210Z,13.98
2023-04-15T23:17:38.981Z,15.90
2023-04-15T23:20:09.838Z,11.90
2023-04-15T23:22:38.740Z,12.50
2023-04-15T23:25:07.608Z,12.73
2023-04-15T23:27:37.232Z,11.13
2023-04-15T23:30:06.546Z,13.65
2023-04-15T23:32:35.715Z,12.02
2023-04-15T23:35:04.174Z,12.43
2023-04-15T23:37:34.597Z,11.85
2023-04-15T23:40:02.976Z,13.30
2023-04-15T23:42:31.978Z,12.13
2023-04-15T23:45:00.610Z,12.70
2023-04-15T23:47:29.625Z,11.57
2023-04-15T23:49:58.054Z,13.82
2023-04-15T23:52:28.338Z,13.65
2023-04-15T23:57:27.394Z,12.00
2023-04-15T23:59:56.355Z,12.93
